createdAt,value
2018-09-22T00:02:20.954Z,73.80
2018-09-22T00:04:52.773Z,73.70
2018-09-22T00:07:24.254Z,73.80
2018-09-22T00:09:56.154Z,73.80
2018-09-22T00:12:27.674Z,74.70
2018-09-22T00:14:59.994Z,74.40
2018-09-22T00:17:32.234Z,73.70
2018-09-22T00:20:03.614Z,74.00
2018-09-22T00:22:36.474Z,73.90
2018-09-22T00:25:09.275Z,74.00
2018-09-22T00:27:40.854Z,73.40
2018-09-22T00:30:13.855Z,71.70
2018-09-22T00:32:45.273Z,70.60
2018-09-22T00:35:18.574Z,71.60
2018-09-22T00:37:49.754Z,69.70
2018-09-22T00:40:22.234Z,70.20
2018-09-22T00:42:55.674Z,70.00
2018-09-22T00:45:27.795Z,69.80
2018-09-22T00:47:59.834Z,69.70
2018-09-22T00:50:32.975Z,69.20
2018-09-22T00:53:05.075Z,69.30
2018-09-22T00:55:37.113Z,70.00
2018-09-22T00:58:09.474Z,68.60
2018-09-22T01:00:40.794Z,69.40
2018-09-22T01:03:12.076Z,71.10
2018-09-22T01:05:44.254Z,69.50
2018-09-22T01:08:16.374Z,69.50
2018-09-22T01:10:48.295Z,70.10
2018-09-22T01:13:20.593Z,70.70
2018-09-22T01:15:52.361Z,70.90
2018-09-22T01:18:24.474Z,71.40
2018-09-22T01:20:57.134Z,71.40
2018-09-22T01:23:29.523Z,71.30
2018-09-22T01:26:01.755Z,72.10
2018-09-22T01:28:34.214Z,72.40
2018-09-22T01:31:05.654Z,71.90
2018-09-22T01:33:37.854Z,72.00
2018-09-22T01:36:09.334Z,72.00
2018-09-22T01:38:41.495Z,71.50
2018-09-22T01:41:12.974Z,71.60
2018-09-22T01:43:45.154Z,71.70
2018-09-22T01:46:17.454Z,71.90
2018-09-22T01:48:49.474Z,72.00
2018-09-22T01:51:21.054Z,70.80
2018-09-22T01:53:52.795Z,70.90
2018-09-22T01:56:24.074Z,70.80
2018-09-22T01:58:56.796Z,71.30
2018-09-22T02:01:28.514Z,71.40
2018-09-22T02:04:00.795Z,71.70
2018-09-22T02:06:32.754Z,72.70
2018-09-22T02:09:05.495Z,72.60
2018-09-22T02:11:37.754Z,72.30
2018-09-22T02:14:10.035Z,72.80
2018-09-22T02:16:42.654Z,71.70
2018-09-22T02:19:14.576Z,72.00
2018-09-22T02:21:46.637Z,72.00
2018-09-22T02:24:19.333Z,72.50
2018-09-22T02:26:50.574Z,72.60
2018-09-22T02:29:22.214Z,72.80
2018-09-22T02:31:54.074Z,72.90
2018-09-22T02:34:26.717Z,72.20
2018-09-22T02:36:58.935Z,71.60
2018-09-22T02:39:30.395Z,71.90
2018-09-22T02:42:02.075Z,70.70
2018-09-22T02:44:33.757Z,71.60
2018-09-22T02:47:05.974Z,71.10
2018-09-22T02:49:37.533Z,71.90
2018-09-22T02:52:09.335Z,71.70
2018-09-22T02:54:41.114Z,71.70
2018-09-22T02:57:13.395Z,72.20
2018-09-22T02:59:44.800Z,72.80
2018-09-22T03:02:17.014Z,72.10
2018-09-22T03:04:48.814Z,72.60
2018-09-22T03:07:20.994Z,72.60
2018-09-22T03:09:53.014Z,72.90
2018-09-22T03:12:24.654Z,73.10
2018-09-22T03:14:57.221Z,73.30
2018-09-22T03:17:28.474Z,73.80
2018-09-22T03:20:01.114Z,73.90
2018-09-22T03:22:33.513Z,72.90
2018-09-22T03:25:05.153Z,72.50
2018-09-22T03:27:37.395Z,71.90
2018-09-22T03:30:09.433Z,71.80
2018-09-22T03:32:41.474Z,71.40
2018-09-22T03:35:13.114Z,71.10
2018-09-22T03:37:44.894Z,70.70
2018-09-22T03:40:16.234Z,70.60
2018-09-22T03:42:48.334Z,70.90
2018-09-22T03:45:19.873Z,71.00
2018-09-22T03:47:52.114Z,70.40
2018-09-22T03:50:24.047Z,69.90
2018-09-22T03:52:55.836Z,69.70
2018-09-22T03:55:27.195Z,70.10
2018-09-22T03:57:58.294Z,70.10
2018-09-22T04:00:30.134Z,69.90
2018-09-22T04:03:01.635Z,70.30
2018-09-22T04:05:33.595Z,70.50
2018-09-22T04:08:06.934Z,70.70
2018-09-22T04:10:39.433Z,70.50
2018-09-22T04:13:11.194Z,70.30
2018-09-22T04:15:43.194Z,71.00
2018-09-22T04:18:14.315Z,71.00
2018-09-22T04:20:46.453Z,71.00
2018-09-22T04:23:17.795Z,70.90
2018-09-22T04:25:50.794Z,71.00
2018-09-22T04:28:22.695Z,71.40
2018-09-22T04:30:55.073Z,71.50
2018-09-22T04:33:27.316Z,71.70
2018-09-22T04:35:59.194Z,71.50
2018-09-22T04:38:31.595Z,71.50
2018-09-22T04:41:03.214Z,71.90
2018-09-22T04:43:33.174Z,72.00
2018-09-22T04:46:05.096Z,71.90
2018-09-22T04:48:36.954Z,72.00
2018-09-22T04:51:09.554Z,72.00
2018-09-22T04:53:42.614Z,71.70
2018-09-22T04:56:14.574Z,71.50
2018-09-22T04:58:46.234Z,72.20
2018-09-22T05:01:17.994Z,72.10
2018-09-22T05:03:49.874Z,72.10
2018-09-22T05:06:22.593Z,71.90
2018-09-22T05:08:54.874Z,70.90
2018-09-22T05:11:26.554Z,70.70
2018-09-22T05:13:59.455Z,71.40
2018-09-22T05:16:30.554Z,71.10
2018-09-22T05:19:02.614Z,71.30
2018-09-22T05:21:34.296Z,71.10
2018-09-22T05:24:06.254Z,71.40
2018-09-22T05:26:37.654Z,71.80
2018-09-22T05:29:09.877Z,72.50
2018-09-22T05:31:41.614Z,72.30
2018-09-22T05:34:13.813Z,72.30
2018-09-22T05:36:45.054Z,72.20
2018-09-22T05:39:16.934Z,71.90
2018-09-22T05:41:48.561Z,72.30
2018-09-22T05:44:21.513Z,72.20
2018-09-22T05:46:52.794Z,72.30
2018-09-22T05:49:24.596Z,72.30
2018-09-22T05:51:56.495Z,72.40
2018-09-22T05:54:27.913Z,72.60
2018-09-22T05:56:59.909Z,72.10
2018-09-22T05:59:32.314Z,71.70
2018-09-22T06:02:05.013Z,71.20
2018-09-22T06:04:36.814Z,70.70
2018-09-22T06:07:08.635Z,71.00
2018-09-22T06:09:40.302Z,71.10
2018-09-22T06:12:12.533Z,71.10
2018-09-22T06:14:44.853Z,71.60
2018-09-22T06:17:16.635Z,72.10
2018-09-22T06:19:48.954Z,72.10
2018-09-22T06:22:21.195Z,71.90
2018-09-22T06:24:53.414Z,71.30
2018-09-22T06:27:25.834Z,72.20
2018-09-22T06:29:58.673Z,71.60
2018-09-22T06:32:29.814Z,72.30
2018-09-22T06:35:02.295Z,72.10
2018-09-22T06:37:34.364Z,72.40
2018-09-22T06:40:06.557Z,71.90
2018-09-22T06:42:38.514Z,71.50
2018-09-22T06:45:10.594Z,71.10
2018-09-22T06:47:42.613Z,71.30
2018-09-22T06:50:13.914Z,70.90
2018-09-22T06:52:46.314Z,71.50
2018-09-22T06:55:17.673Z,71.40
2018-09-22T06:57:49.856Z,71.90
2018-09-22T07:00:21.294Z,70.80
2018-09-22T07:02:52.540Z,71.40
2018-09-22T07:05:24.475Z,70.80
2018-09-22T07:07:56.645Z,71.90
2018-09-22T07:10:27.406Z,73.20
2018-09-22T07:12:59.686Z,73.50
2018-09-22T07:15:31.387Z,73.10
2018-09-22T07:18:04.149Z,73.00
2018-09-22T07:20:35.965Z,72.20
2018-09-22T07:23:11.506Z,72.70
2018-09-22T07:25:44.049Z,72.60
2018-09-22T07:28:15.908Z,73.00
2018-09-22T07:30:47.496Z,72.00
2018-09-22T07:33:21.709Z,71.90
2018-09-22T07:35:53.680Z,71.30
2018-09-22T07:38:25.653Z,70.10
2018-09-22T07:40:57.352Z,69.50
2018-09-22T07:43:29.573Z,66.30
2018-09-22T07:46:00.814Z,65.90
2018-09-22T07:48:32.192Z,65.40
2018-09-22T07:51:03.473Z,63.90
2018-09-22T07:53:34.712Z,64.10
2018-09-22T07:56:06.113Z,64.80
2018-09-22T07:58:38.289Z,64.90
2018-09-22T08:01:09.820Z,63.80
2018-09-22T08:03:41.312Z,62.80
2018-09-22T08:06:12.795Z,62.10
2018-09-22T08:08:44.857Z,61.90
2018-09-22T08:11:15.557Z,62.10
2018-09-22T08:13:47.157Z,62.20
2018-09-22T08:16:19.401Z,61.40
2018-09-22T08:18:51.339Z,62.10
2018-09-22T08:21:23.019Z,60.40
2018-09-22T08:23:54.261Z,59.60
2018-09-22T08:26:25.940Z,59.60
2018-09-22T08:28:57.520Z,60.30
2018-09-22T08:31:29.666Z,58.00
2018-09-22T08:34:01.780Z,57.40
2018-09-22T08:36:33.188Z,57.20
2018-09-22T08:39:06.054Z,56.50
2018-09-22T08:41:38.055Z,56.70
2018-09-22T08:44:09.376Z,56.00
2018-09-22T08:46:40.836Z,55.30
2018-09-22T08:49:13.035Z,54.30
2018-09-22T08:51:45.105Z,55.50
2018-09-22T08:54:17.426Z,54.70
2018-09-22T08:56:48.682Z,54.00
2018-09-22T08:59:21.290Z,55.00
2018-09-22T09:01:52.989Z,53.50
2018-09-22T09:04:25.166Z,54.20
2018-09-22T09:06:56.307Z,54.10
2018-09-22T09:09:29.106Z,54.30
2018-09-22T09:12:00.351Z,53.60
2018-09-22T09:14:32.494Z,53.10
2018-09-22T09:17:05.351Z,52.40
2018-09-22T09:19:37.111Z,52.50
2018-09-22T09:22:08.374Z,53.10
2018-09-22T09:24:39.893Z,51.20
2018-09-22T09:27:11.183Z,50.30
2018-09-22T09:29:43.605Z,50.20
2018-09-22T09:32:17.531Z,50.70
2018-09-22T09:34:49.264Z,50.60
2018-09-22T09:37:21.583Z,50.80
2018-09-22T09:39:52.383Z,51.40
2018-09-22T09:42:24.502Z,50.90
2018-09-22T09:44:56.682Z,50.60
2018-09-22T09:47:28.058Z,50.70
2018-09-22T09:50:00.289Z,50.30
2018-09-22T09:52:32.101Z,49.70
2018-09-22T09:55:04.170Z,49.90
2018-09-22T09:57:35.510Z,50.30
2018-09-22T10:00:08.049Z,49.00
2018-09-22T10:02:39.870Z,48.10
2018-09-22T10:05:10.861Z,48.10
2018-09-22T10:07:42.551Z,48.30
2018-09-22T10:10:15.026Z,47.80
2018-09-22T10:12:46.919Z,47.40
2018-09-22T10:15:18.742Z,46.90
2018-09-22T10:17:49.941Z,46.00
2018-09-22T10:20:21.810Z,46.30
2018-09-22T10:22:53.287Z,46.60
2018-09-22T10:25:24.961Z,46.90
2018-09-22T10:27:56.711Z,46.10
2018-09-22T10:30:28.637Z,46.60
2018-09-22T10:33:00.537Z,46.90
2018-09-22T10:35:32.214Z,46.50
2018-09-22T10:38:03.994Z,47.50
2018-09-22T10:40:35.713Z,47.20
2018-09-22T10:43:07.879Z,46.10
2018-09-22T10:45:39.568Z,47.60
2018-09-22T10:48:11.139Z,47.30
2018-09-22T10:50:42.819Z,47.40
2018-09-22T10:53:15.901Z,47.70
2018-09-22T10:55:49.161Z,47.30
2018-09-22T10:58:20.591Z,48.70
2018-09-22T11:00:52.946Z,48.90
2018-09-22T11:03:24.310Z,49.00
2018-09-22T11:05:56.466Z,48.70
2018-09-22T11:08:28.386Z,48.50
2018-09-22T11:11:00.048Z,48.50
2018-09-22T11:13:30.909Z,46.90
2018-09-22T11:16:03.034Z,48.40
2018-09-22T11:18:34.614Z,48.70
2018-09-22T11:21:06.297Z,48.50
2018-09-22T11:23:37.834Z,47.70
2018-09-22T11:26:10.276Z,46.80
2018-09-22T11:28:41.895Z,46.90
2018-09-22T11:31:14.071Z,47.20
2018-09-22T11:33:45.252Z,47.90
2018-09-22T11:36:16.565Z,47.90
2018-09-22T11:38:47.928Z,46.90
2018-09-22T11:41:20.037Z,47.30
2018-09-22T11:43:51.628Z,47.10
2018-09-22T11:46:23.824Z,46.00
2018-09-22T11:48:54.872Z,46.50
2018-09-22T11:51:27.652Z,45.70
2018-09-22T11:53:59.068Z,43.70
2018-09-22T11:56:31.680Z,44.20
2018-09-22T11:59:02.758Z,44.60
2018-09-22T12:01:34.963Z,43.40
2018-09-22T12:04:06.180Z,43.50
2018-09-22T12:06:38.703Z,44.20
2018-09-22T12:09:11.899Z,45.20
2018-09-22T12:11:42.889Z,43.50
2018-09-22T12:14:13.558Z,44.10
2018-09-22T12:16:45.565Z,42.90
2018-09-22T12:19:17.847Z,42.40
2018-09-22T12:21:49.324Z,42.50
2018-09-22T12:24:21.167Z,42.80
2018-09-22T12:26:53.063Z,43.30
2018-09-22T12:29:25.010Z,43.60
2018-09-22T12:31:57.026Z,42.50
2018-09-22T12:34:28.903Z,43.60
2018-09-22T12:37:00.803Z,42.60
2018-09-22T12:39:32.523Z,43.50
2018-09-22T12:42:04.803Z,43.30
2018-09-22T12:44:36.945Z,43.00
2018-09-22T12:47:08.363Z,42.30
2018-09-22T12:49:40.944Z,43.20
2018-09-22T12:52:13.429Z,42.10
2018-09-22T12:54:44.843Z,42.70
2018-09-22T12:57:16.564Z,42.80
2018-09-22T12:59:48.305Z,42.20
2018-09-22T13:02:20.366Z,42.30
2018-09-22T13:04:51.723Z,41.60
2018-09-22T13:07:23.263Z,40.20
2018-09-22T13:09:57.105Z,40.80
2018-09-22T13:12:29.263Z,41.50
2018-09-22T13:15:01.966Z,41.50
2018-09-22T13:17:33.643Z,40.90
2018-09-22T13:20:05.350Z,41.30
2018-09-22T13:22:37.003Z,41.40
2018-09-22T13:25:09.224Z,42.30
2018-09-22T13:27:41.264Z,42.80
2018-09-22T13:30:13.322Z,42.50
2018-09-22T13:32:44.962Z,42.80
2018-09-22T13:35:16.784Z,43.10
2018-09-22T13:37:47.923Z,43.50
2018-09-22T13:40:19.746Z,43.50
2018-09-22T13:42:51.563Z,43.70
2018-09-22T13:45:23.405Z,44.20
2018-09-22T13:47:55.184Z,43.90
2018-09-22T13:50:27.803Z,44.00
2018-09-22T13:52:59.964Z,44.50
2018-09-22T13:55:32.266Z,44.80
2018-09-22T13:58:04.764Z,44.50
2018-09-22T14:00:36.464Z,44.90
2018-09-22T14:03:08.363Z,45.10
2018-09-22T14:05:40.304Z,45.20
2018-09-22T14:08:12.524Z,45.10
2018-09-22T14:10:44.263Z,45.50
2018-09-22T14:13:16.303Z,44.80
2018-09-22T14:15:47.624Z,44.90
2018-09-22T14:18:19.523Z,45.30
2018-09-22T14:20:51.663Z,46.00
2018-09-22T14:23:23.203Z,45.80
2018-09-22T14:25:56.142Z,45.60
2018-09-22T14:28:27.984Z,45.70
2018-09-22T14:31:00.944Z,46.20
2018-09-22T14:33:33.044Z,45.90
2018-09-22T14:36:04.943Z,45.50
2018-09-22T14:38:37.063Z,45.70
2018-09-22T14:41:08.943Z,45.60
2018-09-22T14:43:40.763Z,45.80
2018-09-22T14:46:12.683Z,46.10
2018-09-22T14:48:45.043Z,45.50
2018-09-22T14:51:16.904Z,45.80
2018-09-22T14:53:49.144Z,45.50
2018-09-22T14:56:20.345Z,45.10
2018-09-22T14:58:52.944Z,45.20
2018-09-22T15:01:25.624Z,45.60
2018-09-22T15:03:57.628Z,45.40
2018-09-22T15:06:29.765Z,45.90
2018-09-22T15:09:01.003Z,46.10
2018-09-22T15:11:32.884Z,46.00
2018-09-22T15:14:04.684Z,46.10
2018-09-22T15:16:36.245Z,46.40
2018-09-22T15:19:07.984Z,46.70
2018-09-22T15:21:39.884Z,46.40
2018-09-22T15:24:11.683Z,46.40
2018-09-22T15:26:44.105Z,46.70
2018-09-22T15:29:15.543Z,46.40
2018-09-22T15:31:47.645Z,46.30
2018-09-22T15:34:18.766Z,46.30
2018-09-22T15:36:51.257Z,46.70
2018-09-22T15:39:22.584Z,46.40
2018-09-22T15:41:53.911Z,46.10
2018-09-22T15:44:25.565Z,46.30
2018-09-22T15:46:57.683Z,46.70
2018-09-22T15:49:29.563Z,47.10
2018-09-22T15:52:01.578Z,46.60
2018-09-22T15:54:33.603Z,46.70
2018-09-22T15:57:06.543Z,46.80
2018-09-22T15:59:38.366Z,47.50
2018-09-22T16:02:10.543Z,47.30
2018-09-22T16:04:43.203Z,47.30
2018-09-22T16:07:14.743Z,47.50
2018-09-22T16:09:46.806Z,47.20
2018-09-22T16:12:19.493Z,47.60
2018-09-22T16:14:51.604Z,47.10
2018-09-22T16:17:22.783Z,47.20
2018-09-22T16:19:54.107Z,47.70
2018-09-22T16:22:26.604Z,49.60
2018-09-22T16:24:58.464Z,51.10
2018-09-22T16:27:30.504Z,52.10
2018-09-22T16:30:02.383Z,52.30
2018-09-22T16:32:34.343Z,53.10
2018-09-22T16:35:05.722Z,53.10
2018-09-22T16:37:37.963Z,53.20
2018-09-22T16:40:09.102Z,53.60
2018-09-22T16:42:41.563Z,52.90
2018-09-22T16:45:13.643Z,53.60
2018-09-22T16:47:45.323Z,53.90
2018-09-22T16:50:16.643Z,53.70
2018-09-22T16:52:48.628Z,53.80
2018-09-22T16:55:21.403Z,53.70
2018-09-22T16:57:53.123Z,54.00
2018-09-22T17:00:25.004Z,54.60
2018-09-22T17:02:56.964Z,54.80
2018-09-22T17:05:28.363Z,55.20
2018-09-22T17:07:59.763Z,55.60
2018-09-22T17:10:31.218Z,55.50
2018-09-22T17:13:03.146Z,56.10
2018-09-22T17:15:34.506Z,55.80
2018-09-22T17:18:06.163Z,55.50
2018-09-22T17:20:38.023Z,55.60
2018-09-22T17:23:09.763Z,55.90
2018-09-22T17:25:41.583Z,56.10
2018-09-22T17:28:13.645Z,56.20
2018-09-22T17:30:45.184Z,55.90
2018-09-22T17:33:18.225Z,56.00
2018-09-22T17:35:50.763Z,56.40
2018-09-22T17:38:22.245Z,56.30
2018-09-22T17:40:54.507Z,56.60
2018-09-22T17:43:25.015Z,56.40
2018-09-22T17:45:58.123Z,55.90
2018-09-22T17:48:30.923Z,55.80
2018-09-22T17:51:03.143Z,55.70
2018-09-22T17:53:35.692Z,56.20
2018-09-22T17:56:06.943Z,56.40
2018-09-22T17:58:38.683Z,56.90
2018-09-22T18:01:10.404Z,57.50
2018-09-22T18:03:43.266Z,58.10
2018-09-22T18:06:15.644Z,57.40
2018-09-22T18:08:47.603Z,58.50
2018-09-22T18:11:19.144Z,59.50
2018-09-22T18:13:50.563Z,58.70
2018-09-22T18:16:21.864Z,58.60
2018-09-22T18:18:54.503Z,59.60
2018-09-22T18:21:26.163Z,59.80
2018-09-22T18:23:58.383Z,60.70
2018-09-22T18:26:30.403Z,61.20
2018-09-22T18:29:02.166Z,62.30
2018-09-22T18:31:34.803Z,62.10
2018-09-22T18:34:06.533Z,62.50
2018-09-22T18:36:38.704Z,63.60
2018-09-22T18:39:10.308Z,64.10
2018-09-22T18:41:42.843Z,64.50
2018-09-22T18:44:14.615Z,65.70
2018-09-22T18:46:46.363Z,65.40
2018-09-22T18:49:18.444Z,65.90
2018-09-22T18:51:50.323Z,65.40
2018-09-22T18:54:22.083Z,66.70
2018-09-22T18:56:53.905Z,66.50
2018-09-22T18:59:25.163Z,66.60
2018-09-22T19:01:56.946Z,66.70
2018-09-22T19:04:29.823Z,67.30
2018-09-22T19:07:01.583Z,67.10
2018-09-22T19:09:34.262Z,67.90
2018-09-22T19:12:07.043Z,66.70
2018-09-22T19:14:43.064Z,65.90
2018-09-22T19:17:21.685Z,65.40
2018-09-22T19:19:57.843Z,65.50
2018-09-22T19:22:34.503Z,65.80
2018-09-22T19:25:10.363Z,65.10
2018-09-22T19:28:46.225Z,62.90
2018-09-22T19:31:25.465Z,64.50
2018-09-22T19:34:05.065Z,62.50
2018-09-22T19:36:47.992Z,62.50
2018-09-22T19:39:25.607Z,63.40
2018-09-22T19:42:02.109Z,64.70
2018-09-22T19:44:37.866Z,65.60
2018-09-22T19:47:43.366Z,65.40
2018-09-22T19:50:18.165Z,65.70
2018-09-22T19:52:52.905Z,67.20
2018-09-22T19:55:24.786Z,67.70
2018-09-22T19:57:56.217Z,68.50
2018-09-22T20:00:27.866Z,68.50
2018-09-22T20:02:59.786Z,68.90
2018-09-22T20:05:32.525Z,69.50
2018-09-22T20:08:04.365Z,68.60
2018-09-22T20:10:36.148Z,66.90
2018-09-22T20:13:08.286Z,65.80
2018-09-22T20:15:40.145Z,66.70
2018-09-22T20:18:12.489Z,66.90
2018-09-22T20:20:43.466Z,66.70
2018-09-22T20:23:15.625Z,67.30
2018-09-22T20:25:47.285Z,68.00
2018-09-22T20:28:19.485Z,68.50
2018-09-22T20:30:51.085Z,69.30
2018-09-22T20:33:22.940Z,68.30
2018-09-22T20:35:54.432Z,69.70
2018-09-22T20:38:26.986Z,69.30
2018-09-22T20:40:58.685Z,68.30
2018-09-22T20:43:30.605Z,69.10
2018-09-22T20:46:02.085Z,68.60
2018-09-22T20:48:34.365Z,68.00
2018-09-22T20:51:05.585Z,68.20
2018-09-22T20:53:37.630Z,68.40
2018-09-22T20:56:08.505Z,68.70
2018-09-22T20:58:39.665Z,68.20
2018-09-22T21:01:11.546Z,69.60
2018-09-22T21:03:43.305Z,67.10
2018-09-22T21:06:14.927Z,68.50
2018-09-22T21:08:47.425Z,70.20
2018-09-22T21:11:19.205Z,70.30
2018-09-22T21:13:51.145Z,69.40
2018-09-22T21:16:22.725Z,70.40
2018-09-22T21:18:54.678Z,71.60
2018-09-22T21:21:26.567Z,70.10
2018-09-22T21:23:59.567Z,70.90
2018-09-22T21:26:31.725Z,70.30
2018-09-22T21:29:03.325Z,70.90
2018-09-22T21:31:35.146Z,70.40
2018-09-22T21:34:07.384Z,70.80
2018-09-22T21:36:38.984Z,70.40
2018-09-22T21:39:11.449Z,69.30
2018-09-22T21:41:43.534Z,70.40
2018-09-22T21:44:15.825Z,69.70
2018-09-22T21:46:47.065Z,69.70
2018-09-22T21:49:19.465Z,69.70
2018-09-22T21:51:51.405Z,69.50
2018-09-22T21:54:24.165Z,69.50
2018-09-22T21:56:55.885Z,68.10
2018-09-22T21:59:28.165Z,69.20
2018-09-22T22:02:00.525Z,68.70
2018-09-22T22:04:31.944Z,68.20
2018-09-22T22:07:03.885Z,68.80
2018-09-22T22:09:35.524Z,69.00
2018-09-22T22:12:07.785Z,69.30
2018-09-22T22:14:46.205Z,68.70
2018-09-22T22:17:17.425Z,69.50
2018-09-22T22:19:49.425Z,68.40
2018-09-22T22:22:21.664Z,68.50
2018-09-22T22:24:53.884Z,68.40
2018-09-22T22:27:26.465Z,69.10
2018-09-22T22:29:59.314Z,69.50
2018-09-22T22:32:30.987Z,69.30
2018-09-22T22:35:03.030Z,70.10
2018-09-22T22:37:34.245Z,70.40
2018-09-22T22:40:06.186Z,71.00
2018-09-22T22:42:38.145Z,70.80
2018-09-22T22:45:10.425Z,71.10
2018-09-22T22:47:42.365Z,71.40
2018-09-22T22:50:13.625Z,71.60
2018-09-22T22:52:45.425Z,71.70
2018-09-22T22:55:17.745Z,72.00
2018-09-22T22:57:49.126Z,71.90
2018-09-22T23:00:20.203Z,71.90
2018-09-22T23:02:51.964Z,72.60
2018-09-22T23:05:23.965Z,72.60
2018-09-22T23:07:56.228Z,72.90
2018-09-22T23:10:28.345Z,73.20
2018-09-22T23:13:00.165Z,73.50
2018-09-22T23:15:32.225Z,73.30
2018-09-22T23:18:04.345Z,73.80
2018-09-22T23:20:36.107Z,73.50
2018-09-22T23:23:06.906Z,73.80
2018-09-22T23:25:39.005Z,74.70
2018-09-22T23:28:10.828Z,75.20
2018-09-22T23:30:43.205Z,75.50
2018-09-22T23:33:15.130Z,74.80
2018-09-22T23:35:47.385Z,76.10
2018-09-22T23:38:18.985Z,75.80
2018-09-22T23:40:51.046Z,74.10
2018-09-22T23:43:23.387Z,75.60
2018-09-22T23:45:54.785Z,74.90
2018-09-22T23:48:26.865Z,73.00
2018-09-22T23:50:58.305Z,72.10
2018-09-22T23:53:29.665Z,72.10
2018-09-22T23:56:01.445Z,73.80
2018-09-22T23:58:33.561Z,74.10
